<?xml version="1.0" encoding="UTF-8"?>
<gpx creator="Wikiloc - https://www.wikiloc.com" version="1.1" xmlns="http://www.topografix.com/GPX/1/1" xmlns:xsi="http://www.w3.org/2001/XMLSchema-instance" xsi:schemaLocation="http://www.topografix.com/GPX/1/1 http://www.topografix.com/GPX/1/1/gpx.xsd">
  <metadata>
    <name>Wikiloc - Sendero del Vino: Canal</name>
    <link href="https://www.wikiloc.com/hiking-trails/sendero-del-vino-canal-5909860">
      <text>Sendero del Vino: Canal on Wikiloc</text>
    </link>
    <time>2014-01-07T15:12:57Z</time>
  </metadata>
  <trk>
    <name>Sendero del Vino: Canal</name>
    <cmt></cmt>
    <desc></desc>
    <trkseg>
      <trkpt lat="42.496878" lon="-2.749407">
        <ele>530.066</ele>
        <time>2014-01-07T12:24:17Z</time>
      </trkpt>
      <trkpt lat="42.496618" lon="-2.748757">
        <ele>532.729</ele>
        <time>2014-01-07T12:36:17Z</time>
      </trkpt>
      <trkpt lat="42.495498" lon="-2.747728">
        <ele>540.121</ele>
        <time>2014-01-07T12:41:37Z</time>
      </trkpt>
      <trkpt lat="42.495218" lon="-2.747258">
        <ele>544.107</ele>
        <time>2014-01-07T12:41:57Z</time>
      </trkpt>
      <trkpt lat="42.494788" lon="-2.746898">
        <ele>542.661</ele>
        <time>2014-01-07T12:45:17Z</time>
      </trkpt>
      <trkpt lat="42.494448" lon="-2.746268">
        <ele>540.165</ele>
        <time>2014-01-07T13:00:57Z</time>
      </trkpt>
      <trkpt lat="42.493808" lon="-2.745848">
        <ele>532.336</ele>
        <time>2014-01-07T13:08:57Z</time>
      </trkpt>
      <trkpt lat="42.492948" lon="-2.747968">
        <ele>544.125</ele>
        <time>2014-01-07T13:15:37Z</time>
      </trkpt>
      <trkpt lat="42.492648" lon="-2.748248">
        <ele>543.294</ele>
        <time>2014-01-07T13:21:17Z</time>
      </trkpt>
      <trkpt lat="42.491188" lon="-2.748508">
        <ele>547.672</ele>
        <time>2014-01-07T13:28:37Z</time>
      </trkpt>
      <trkpt lat="42.489768" lon="-2.748548">
        <ele>558.396</ele>
        <time>2014-01-07T13:35:17Z</time>
      </trkpt>
      <trkpt lat="42.489938" lon="-2.748588">
        <ele>557.957</ele>
        <time>2014-01-07T13:37:57Z</time>
      </trkpt>
      <trkpt lat="42.489988" lon="-2.748508">
        <ele>555.900</ele>
        <time>2014-01-07T13:42:17Z</time>
      </trkpt>
      <trkpt lat="42.489768" lon="-2.748528">
        <ele>557.920</ele>
        <time>2014-01-07T13:50:37Z</time>
      </trkpt>
      <trkpt lat="42.489278" lon="-2.748308">
        <ele>557.907</ele>
        <time>2014-01-07T13:52:57Z</time>
      </trkpt>
      <trkpt lat="42.488678" lon="-2.747758">
        <ele>557.570</ele>
        <time>2014-01-07T13:53:37Z</time>
      </trkpt>
      <trkpt lat="42.486979" lon="-2.747858">
        <ele>558.954</ele>
        <time>2014-01-07T13:55:17Z</time>
      </trkpt>
      <trkpt lat="42.486379" lon="-2.747478">
        <ele>561.895</ele>
        <time>2014-01-07T13:55:57Z</time>
      </trkpt>
      <trkpt lat="42.486099" lon="-2.746978">
        <ele>556.484</ele>
        <time>2014-01-07T13:56:17Z</time>
      </trkpt>
      <trkpt lat="42.485969" lon="-2.746508">
        <ele>557.083</ele>
        <time>2014-01-07T13:56:37Z</time>
      </trkpt>
      <trkpt lat="42.486279" lon="-2.746398">
        <ele>558.221</ele>
        <time>2014-01-07T13:56:57Z</time>
      </trkpt>
      <trkpt lat="42.486699" lon="-2.746398">
        <ele>561.255</ele>
        <time>2014-01-07T13:57:17Z</time>
      </trkpt>
      <trkpt lat="42.487028" lon="-2.746058">
        <ele>559.782</ele>
        <time>2014-01-07T13:57:37Z</time>
      </trkpt>
      <trkpt lat="42.487178" lon="-2.745538">
        <ele>559.443</ele>
        <time>2014-01-07T13:57:57Z</time>
      </trkpt>
      <trkpt lat="42.487198" lon="-2.744877">
        <ele>558.617</ele>
        <time>2014-01-07T14:01:57Z</time>
      </trkpt>
      <trkpt lat="42.486938" lon="-2.744537">
        <ele>560.107</ele>
        <time>2014-01-07T14:02:17Z</time>
      </trkpt>
      <trkpt lat="42.486548" lon="-2.744317">
        <ele>560.313</ele>
        <time>2014-01-07T14:02:37Z</time>
      </trkpt>
      <trkpt lat="42.485718" lon="-2.744187">
        <ele>559.857</ele>
        <time>2014-01-07T14:03:17Z</time>
      </trkpt>
      <trkpt lat="42.484839" lon="-2.743527">
        <ele>559.748</ele>
        <time>2014-01-07T14:03:57Z</time>
      </trkpt>
      <trkpt lat="42.483249" lon="-2.742707">
        <ele>558.517</ele>
        <time>2014-01-07T14:05:17Z</time>
      </trkpt>
      <trkpt lat="42.482689" lon="-2.742537">
        <ele>562.246</ele>
        <time>2014-01-07T14:07:37Z</time>
      </trkpt>
      <trkpt lat="42.481549" lon="-2.741097">
        <ele>560.574</ele>
        <time>2014-01-07T14:10:57Z</time>
      </trkpt>
      <trkpt lat="42.480799" lon="-2.740997">
        <ele>561.028</ele>
        <time>2014-01-07T14:11:37Z</time>
      </trkpt>
      <trkpt lat="42.480119" lon="-2.740647">
        <ele>561.698</ele>
        <time>2014-01-07T14:12:17Z</time>
      </trkpt>
      <trkpt lat="42.479769" lon="-2.740647">
        <ele>562.315</ele>
        <time>2014-01-07T14:12:37Z</time>
      </trkpt>
      <trkpt lat="42.479409" lon="-2.740517">
        <ele>561.826</ele>
        <time>2014-01-07T14:12:57Z</time>
      </trkpt>
      <trkpt lat="42.478789" lon="-2.739917">
        <ele>561.207</ele>
        <time>2014-01-07T14:13:37Z</time>
      </trkpt>
      <trkpt lat="42.478119" lon="-2.739857">
        <ele>561.854</ele>
        <time>2014-01-07T14:14:17Z</time>
      </trkpt>
      <trkpt lat="42.477609" lon="-2.739467">
        <ele>561.828</ele>
        <time>2014-01-07T14:14:57Z</time>
      </trkpt>
      <trkpt lat="42.477009" lon="-2.739467">
        <ele>562.369</ele>
        <time>2014-01-07T14:15:37Z</time>
      </trkpt>
      <trkpt lat="42.476599" lon="-2.739317">
        <ele>561.178</ele>
        <time>2014-01-07T14:15:57Z</time>
      </trkpt>
      <trkpt lat="42.476169" lon="-2.739537">
        <ele>562.557</ele>
        <time>2014-01-07T14:16:17Z</time>
      </trkpt>
      <trkpt lat="42.475269" lon="-2.739337">
        <ele>561.665</ele>
        <time>2014-01-07T14:21:17Z</time>
      </trkpt>
      <trkpt lat="42.475029" lon="-2.739107">
        <ele>561.819</ele>
        <time>2014-01-07T14:22:17Z</time>
      </trkpt>
      <trkpt lat="42.474859" lon="-2.738607">
        <ele>560.597</ele>
        <time>2014-01-07T14:23:37Z</time>
      </trkpt>
      <trkpt lat="42.474469" lon="-2.738287">
        <ele>562.223</ele>
        <time>2014-01-07T14:24:17Z</time>
      </trkpt>
      <trkpt lat="42.473999" lon="-2.737277">
        <ele>561.325</ele>
        <time>2014-01-07T14:25:37Z</time>
      </trkpt>
      <trkpt lat="42.473679" lon="-2.736917">
        <ele>561.507</ele>
        <time>2014-01-07T14:29:57Z</time>
      </trkpt>
      <trkpt lat="42.471979" lon="-2.736017">
        <ele>562.154</ele>
        <time>2014-01-07T14:31:57Z</time>
      </trkpt>
      <trkpt lat="42.471509" lon="-2.735437">
        <ele>562.398</ele>
        <time>2014-01-07T14:32:37Z</time>
      </trkpt>
      <trkpt lat="42.470779" lon="-2.734877">
        <ele>561.279</ele>
        <time>2014-01-07T14:33:37Z</time>
      </trkpt>
      <trkpt lat="42.470008" lon="-2.735007">
        <ele>563.248</ele>
        <time>2014-01-07T14:34:37Z</time>
      </trkpt>
      <trkpt lat="42.469748" lon="-2.734937">
        <ele>562.897</ele>
        <time>2014-01-07T14:34:57Z</time>
      </trkpt>
      <trkpt lat="42.468768" lon="-2.734217">
        <ele>563.455</ele>
        <time>2014-01-07T14:36:17Z</time>
      </trkpt>
      <trkpt lat="42.468418" lon="-2.733637">
        <ele>561.929</ele>
        <time>2014-01-07T14:36:57Z</time>
      </trkpt>
      <trkpt lat="42.468208" lon="-2.733487">
        <ele>561.582</ele>
        <time>2014-01-07T14:37:17Z</time>
      </trkpt>
      <trkpt lat="42.467588" lon="-2.733567">
        <ele>563.243</ele>
        <time>2014-01-07T14:37:57Z</time>
      </trkpt>
      <trkpt lat="42.467028" lon="-2.733457">
        <ele>562.917</ele>
        <time>2014-01-07T14:38:37Z</time>
      </trkpt>
      <trkpt lat="42.466768" lon="-2.733357">
        <ele>563.307</ele>
        <time>2014-01-07T14:38:57Z</time>
      </trkpt>
      <trkpt lat="42.465948" lon="-2.732727">
        <ele>562.383</ele>
        <time>2014-01-07T14:39:57Z</time>
      </trkpt>
      <trkpt lat="42.464748" lon="-2.732387">
        <ele>562.317</ele>
        <time>2014-01-07T14:40:57Z</time>
      </trkpt>
      <trkpt lat="42.463938" lon="-2.732387">
        <ele>564.118</ele>
        <time>2014-01-07T14:41:37Z</time>
      </trkpt>
      <trkpt lat="42.463038" lon="-2.732687">
        <ele>563.027</ele>
        <time>2014-01-07T14:42:37Z</time>
      </trkpt>
      <trkpt lat="42.462518" lon="-2.732427">
        <ele>562.536</ele>
        <time>2014-01-07T14:42:57Z</time>
      </trkpt>
      <trkpt lat="42.462068" lon="-2.732607">
        <ele>564.494</ele>
        <time>2014-01-07T14:43:17Z</time>
      </trkpt>
      <trkpt lat="42.460588" lon="-2.733607">
        <ele>565.368</ele>
        <time>2014-01-07T14:44:17Z</time>
      </trkpt>
      <trkpt lat="42.459748" lon="-2.734817">
        <ele>565.166</ele>
        <time>2014-01-07T14:53:37Z</time>
      </trkpt>
      <trkpt lat="42.459708" lon="-2.734727">
        <ele>562.829</ele>
        <time>2014-01-07T14:57:17Z</time>
      </trkpt>
      <trkpt lat="42.459578" lon="-2.734877">
        <ele>562.621</ele>
        <time>2014-01-07T15:01:57Z</time>
      </trkpt>
      <trkpt lat="42.459838" lon="-2.733937">
        <ele>555.007</ele>
        <time>2014-01-07T15:02:37Z</time>
      </trkpt>
      <trkpt lat="42.459858" lon="-2.733507">
        <ele>550.821</ele>
        <time>2014-01-07T15:02:57Z</time>
      </trkpt>
      <trkpt lat="42.459618" lon="-2.733037">
        <ele>542.385</ele>
        <time>2014-01-07T15:03:17Z</time>
      </trkpt>
      <trkpt lat="42.459068" lon="-2.732577">
        <ele>530.836</ele>
        <time>2014-01-07T15:03:57Z</time>
      </trkpt>
      <trkpt lat="42.457408" lon="-2.731678">
        <ele>509.495</ele>
        <time>2014-01-07T15:05:57Z</time>
      </trkpt>
      <trkpt lat="42.456508" lon="-2.731548">
        <ele>500.094</ele>
        <time>2014-01-07T15:12:57Z</time>
      </trkpt>
    </trkseg>
  </trk></gpx>